sensor_id;sensor_type;location;lat;lon;timestamp;temperature;humidity
75164;HTU21D;63746;45.402;37.922;2023-04-03T00:00:30;9.56;64.96
75164;HTU21D;63746;45.402;37.922;2023-04-03T00:02:56;9.55;64.95
75164;HTU21D;63746;45.402;37.922;2023-04-03T00:05:21;9.56;64.96
75164;HTU21D;63746;45.402;37.922;2023-04-03T00:07:47;9.56;64.97
75164;HTU21D;63746;45.402;37.922;2023-04-03T00:10:15;9.56;64.96
75164;HTU21D;63746;45.402;37.922;2023-04-03T00:12:41;9.55;64.99
75164;HTU21D;63746;45.402;37.922;2023-04-03T00:15:08;9.56;64.99
75164;HTU21D;63746;45.402;37.922;2023-04-03T00:17:35;9.55;65.06
75164;HTU21D;63746;45.402;37.922;2023-04-03T00:20:01;9.55;65.08
75164;HTU21D;63746;45.402;37.922;2023-04-03T00:22:27;9.57;65.10
75164;HTU21D;63746;45.402;37.922;2023-04-03T00:24:54;9.57;65.12
75164;HTU21D;63746;45.402;37.922;2023-04-03T00:27:20;9.59;65.18
75164;HTU21D;63746;45.402;37.922;2023-04-03T00:29:46;9.61;65.17
75164;HTU21D;63746;45.402;37.922;2023-04-03T00:32:13;9.62;65.17
75164;HTU21D;63746;45.402;37.922;2023-04-03T00:34:39;9.64;65.16
75164;HTU21D;63746;45.402;37.922;2023-04-03T00:37:05;9.65;65.18
75164;HTU21D;63746;45.402;37.922;2023-04-03T00:39:31;9.66;65.20
75164;HTU21D;63746;45.402;37.922;2023-04-03T00:41:57;9.69;65.17
75164;HTU21D;63746;45.402;37.922;2023-04-03T00:46:59;9.74;65.18
75164;HTU21D;63746;45.402;37.922;2023-04-03T00:49:26;9.76;65.20
75164;HTU21D;63746;45.402;37.922;2023-04-03T00:51:52;9.81;65.17
75164;HTU21D;63746;45.402;37.922;2023-04-03T00:54:19;9.82;65.20
75164;HTU21D;63746;45.402;37.922;2023-04-03T00:56:45;9.84;65.16
75164;HTU21D;63746;45.402;37.922;2023-04-03T00:59:18;9.86;65.16
75164;HTU21D;63746;45.402;37.922;2023-04-03T01:01:48;9.89;65.15
75164;HTU21D;63746;45.402;37.922;2023-04-03T01:04:34;9.91;65.35
75164;HTU21D;63746;45.402;37.922;2023-04-03T01:07:19;9.91;65.31
75164;HTU21D;63746;45.402;37.922;2023-04-03T01:09:47;9.92;65.10
75164;HTU21D;63746;45.402;37.922;2023-04-03T01:12:26;9.92;65.11
75164;HTU21D;63746;45.402;37.922;2023-04-03T01:14:56;9.91;65.13
75164;HTU21D;63746;45.402;37.922;2023-04-03T01:17:43;9.92;65.30
75164;HTU21D;63746;45.402;37.922;2023-04-03T01:25:44;9.94;65.37
75164;HTU21D;63746;45.402;37.922;2023-04-03T01:28:17;9.95;65.40
75164;HTU21D;63746;45.402;37.922;2023-04-03T01:30:57;9.96;65.56
75164;HTU21D;63746;45.402;37.922;2023-04-03T01:33:24;9.98;65.43
75164;HTU21D;63746;45.402;37.922;2023-04-03T01:35:50;10.01;65.43
75164;HTU21D;63746;45.402;37.922;2023-04-03T01:38:16;10.06;65.59
75164;HTU21D;63746;45.402;37.922;2023-04-03T01:40:42;10.11;65.50
75164;HTU21D;63746;45.402;37.922;2023-04-03T01:43:09;10.14;65.51
75164;HTU21D;63746;45.402;37.922;2023-04-03T01:45:35;10.19;65.47
75164;HTU21D;63746;45.402;37.922;2023-04-03T01:48:02;10.21;65.50
75164;HTU21D;63746;45.402;37.922;2023-04-03T01:50:28;10.23;65.54
75164;HTU21D;63746;45.402;37.922;2023-04-03T01:52:54;10.25;65.64
75164;HTU21D;63746;45.402;37.922;2023-04-03T01:55:20;10.28;65.56
75164;HTU21D;63746;45.402;37.922;2023-04-03T01:57:46;10.30;65.67
75164;HTU21D;63746;45.402;37.922;2023-04-03T02:00:12;10.35;65.58
75164;HTU21D;63746;45.402;37.922;2023-04-03T02:02:39;10.37;65.69
75164;HTU21D;63746;45.402;37.922;2023-04-03T02:05:05;10.41;66.14
75164;HTU21D;63746;45.402;37.922;2023-04-03T02:07:31;10.42;66.38
75164;HTU21D;63746;45.402;37.922;2023-04-03T02:09:57;10.45;65.75
75164;HTU21D;63746;45.402;37.922;2023-04-03T02:12:23;10.48;65.82
75164;HTU21D;63746;45.402;37.922;2023-04-03T02:14:50;10.50;65.89
75164;HTU21D;63746;45.402;37.922;2023-04-03T02:17:15;10.52;65.68
75164;HTU21D;63746;45.402;37.922;2023-04-03T02:19:41;10.54;65.65
75164;HTU21D;63746;45.402;37.922;2023-04-03T02:22:07;10.55;65.88
75164;HTU21D;63746;45.402;37.922;2023-04-03T02:24:34;10.57;65.64
75164;HTU21D;63746;45.402;37.922;2023-04-03T02:27:01;10.58;65.71
75164;HTU21D;63746;45.402;37.922;2023-04-03T02:29:27;10.59;65.81
75164;HTU21D;63746;45.402;37.922;2023-04-03T02:31:53;10.63;65.87
75164;HTU21D;63746;45.402;37.922;2023-04-03T02:34:20;10.63;65.64
75164;HTU21D;63746;45.402;37.922;2023-04-03T02:36:47;10.65;65.78
75164;HTU21D;63746;45.402;37.922;2023-04-03T02:39:14;10.66;65.62
75164;HTU21D;63746;45.402;37.922;2023-04-03T02:41:40;10.67;65.62
75164;HTU21D;63746;45.402;37.922;2023-04-03T02:44:12;10.68;65.59
75164;HTU21D;63746;45.402;37.922;2023-04-03T02:46:38;10.70;65.66
75164;HTU21D;63746;45.402;37.922;2023-04-03T02:49:04;10.70;65.57
75164;HTU21D;63746;45.402;37.922;2023-04-03T02:51:31;10.70;65.56
75164;HTU21D;63746;45.402;37.922;2023-04-03T02:53:57;10.71;65.50
75164;HTU21D;63746;45.402;37.922;2023-04-03T02:56:27;10.74;65.47
75164;HTU21D;63746;45.402;37.922;2023-04-03T02:58:53;10.75;65.46
75164;HTU21D;63746;45.402;37.922;2023-04-03T03:01:19;10.77;65.47
75164;HTU21D;63746;45.402;37.922;2023-04-03T03:03:45;10.79;65.47
75164;HTU21D;63746;45.402;37.922;2023-04-03T03:06:14;10.79;65.46
75164;HTU21D;63746;45.402;37.922;2023-04-03T03:08:41;10.81;65.44
75164;HTU21D;63746;45.402;37.922;2023-04-03T03:11:07;10.82;65.50
75164;HTU21D;63746;45.402;37.922;2023-04-03T03:13:34;10.83;65.53
75164;HTU21D;63746;45.402;37.922;2023-04-03T03:16:00;10.83;65.50
75164;HTU21D;63746;45.402;37.922;2023-04-03T03:18:27;10.81;65.49
75164;HTU21D;63746;45.402;37.922;2023-04-03T03:20:54;10.83;65.54
75164;HTU21D;63746;45.402;37.922;2023-04-03T03:23:23;10.80;65.62
75164;HTU21D;63746;45.402;37.922;2023-04-03T03:25:49;10.81;65.66
75164;HTU21D;63746;45.402;37.922;2023-04-03T03:28:15;10.82;65.63
75164;HTU21D;63746;45.402;37.922;2023-04-03T03:30:41;10.82;65.62
75164;HTU21D;63746;45.402;37.922;2023-04-03T03:33:07;10.85;65.69
75164;HTU21D;63746;45.402;37.922;2023-04-03T03:35:33;10.85;65.78
75164;HTU21D;63746;45.402;37.922;2023-04-03T03:37:58;10.88;65.86
75164;HTU21D;63746;45.402;37.922;2023-04-03T03:40:25;10.89;65.85
75164;HTU21D;63746;45.402;37.922;2023-04-03T03:42:52;10.95;66.02
75164;HTU21D;63746;45.402;37.922;2023-04-03T03:45:18;10.98;65.98
75164;HTU21D;63746;45.402;37.922;2023-04-03T03:47:44;11.00;65.98
75164;HTU21D;63746;45.402;37.922;2023-04-03T03:50:11;11.03;65.89
75164;HTU21D;63746;45.402;37.922;2023-04-03T03:52:37;11.04;66.03
75164;HTU21D;63746;45.402;37.922;2023-04-03T03:55:04;11.10;65.93
75164;HTU21D;63746;45.402;37.922;2023-04-03T03:57:32;11.12;65.92
75164;HTU21D;63746;45.402;37.922;2023-04-03T03:59:58;11.15;65.88
75164;HTU21D;63746;45.402;37.922;2023-04-03T04:02:24;11.18;65.90
75164;HTU21D;63746;45.402;37.922;2023-04-03T04:04:52;11.22;65.85
75164;HTU21D;63746;45.402;37.922;2023-04-03T04:07:18;11.25;65.88
75164;HTU21D;63746;45.402;37.922;2023-04-03T04:09:44;11.26;65.85
75164;HTU21D;63746;45.402;37.922;2023-04-03T04:12:10;11.28;65.82
75164;HTU21D;63746;45.402;37.922;2023-04-03T04:14:37;11.30;65.76
75164;HTU21D;63746;45.402;37.922;2023-04-03T04:17:05;11.30;65.75
75164;HTU21D;63746;45.402;37.922;2023-04-03T04:19:31;11.31;65.70
75164;HTU21D;63746;45.402;37.922;2023-04-03T04:21:58;11.33;65.78
75164;HTU21D;63746;45.402;37.922;2023-04-03T04:24:25;11.32;65.72
75164;HTU21D;63746;45.402;37.922;2023-04-03T04:26:53;11.34;65.72
75164;HTU21D;63746;45.402;37.922;2023-04-03T04:29:20;11.34;65.78
75164;HTU21D;63746;45.402;37.922;2023-04-03T04:31:49;11.36;65.78
75164;HTU21D;63746;45.402;37.922;2023-04-03T04:34:15;11.36;65.78
75164;HTU21D;63746;45.402;37.922;2023-04-03T04:36:41;11.37;65.72
75164;HTU21D;63746;45.402;37.922;2023-04-03T04:39:07;11.36;65.71
75164;HTU21D;63746;45.402;37.922;2023-04-03T04:41:34;11.37;65.69
75164;HTU21D;63746;45.402;37.922;2023-04-03T04:44:02;11.38;65.73
75164;HTU21D;63746;45.402;37.922;2023-04-03T04:46:29;11.39;65.73
75164;HTU21D;63746;45.402;37.922;2023-04-03T04:48:58;11.37;65.74
75164;HTU21D;63746;45.402;37.922;2023-04-03T04:51:27;11.37;65.72
75164;HTU21D;63746;45.402;37.922;2023-04-03T04:53:53;11.37;65.73
75164;HTU21D;63746;45.402;37.922;2023-04-03T04:56:19;11.36;65.81
75164;HTU21D;63746;45.402;37.922;2023-04-03T04:58:45;11.39;65.93
75164;HTU21D;63746;45.402;37.922;2023-04-03T05:01:12;11.42;66.03
75164;HTU21D;63746;45.402;37.922;2023-04-03T05:03:47;11.42;65.94
75164;HTU21D;63746;45.402;37.922;2023-04-03T05:06:13;11.42;65.91
75164;HTU21D;63746;45.402;37.922;2023-04-03T05:08:40;11.39;65.78
75164;HTU21D;63746;45.402;37.922;2023-04-03T05:11:07;11.39;65.91
75164;HTU21D;63746;45.402;37.922;2023-04-03T05:13:33;11.41;66.11
75164;HTU21D;63746;45.402;37.922;2023-04-03T05:16:00;11.44;66.14
75164;HTU21D;63746;45.402;37.922;2023-04-03T05:18:27;11.53;66.38
75164;HTU21D;63746;45.402;37.922;2023-04-03T05:20:57;11.63;66.59
75164;HTU21D;63746;45.402;37.922;2023-04-03T05:23:25;11.78;66.81
75164;HTU21D;63746;45.402;37.922;2023-04-03T05:25:51;11.92;67.34
75164;HTU21D;63746;45.402;37.922;2023-04-03T05:28:18;12.10;67.05
75164;HTU21D;63746;45.402;37.922;2023-04-03T05:30:44;12.26;67.01
75164;HTU21D;63746;45.402;37.922;2023-04-03T05:33:11;12.43;67.06
75164;HTU21D;63746;45.402;37.922;2023-04-03T05:35:43;12.62;66.64
75164;HTU21D;63746;45.402;37.922;2023-04-03T05:38:15;12.78;66.56
75164;HTU21D;63746;45.402;37.922;2023-04-03T05:40:41;12.93;66.65
75164;HTU21D;63746;45.402;37.922;2023-04-03T05:43:08;13.08;66.55
75164;HTU21D;63746;45.402;37.922;2023-04-03T05:45:37;13.25;66.37
75164;HTU21D;63746;45.402;37.922;2023-04-03T05:48:03;13.40;66.43
75164;HTU21D;63746;45.402;37.922;2023-04-03T05:50:30;13.54;66.19
75164;HTU21D;63746;45.402;37.922;2023-04-03T05:52:58;13.68;66.15
75164;HTU21D;63746;45.402;37.922;2023-04-03T05:55:27;13.83;65.95
75164;HTU21D;63746;45.402;37.922;2023-04-03T05:57:53;13.95;65.71
75164;HTU21D;63746;45.402;37.922;2023-04-03T06:00:20;14.03;65.60
75164;HTU21D;63746;45.402;37.922;2023-04-03T06:02:55;14.08;65.43
75164;HTU21D;63746;45.402;37.922;2023-04-03T06:05:24;14.11;65.53
75164;HTU21D;63746;45.402;37.922;2023-04-03T06:07:50;14.15;65.40
75164;HTU21D;63746;45.402;37.922;2023-04-03T06:10:16;14.20;65.53
75164;HTU21D;63746;45.402;37.922;2023-04-03T06:12:44;14.28;65.62
75164;HTU21D;63746;45.402;37.922;2023-04-03T06:15:10;14.36;66.14
75164;HTU21D;63746;45.402;37.922;2023-04-03T06:17:39;14.48;65.89
75164;HTU21D;63746;45.402;37.922;2023-04-03T06:20:07;14.58;65.64
75164;HTU21D;63746;45.402;37.922;2023-04-03T06:22:35;14.70;65.50
75164;HTU21D;63746;45.402;37.922;2023-04-03T06:25:02;14.84;65.40
75164;HTU21D;63746;45.402;37.922;2023-04-03T06:27:28;15.01;65.69
75164;HTU21D;63746;45.402;37.922;2023-04-03T06:29:54;15.16;65.34
75164;HTU21D;63746;45.402;37.922;2023-04-03T06:32:20;15.24;65.16
75164;HTU21D;63746;45.402;37.922;2023-04-03T06:34:46;15.27;64.68
75164;HTU21D;63746;45.402;37.922;2023-04-03T06:37:20;15.27;65.08
75164;HTU21D;63746;45.402;37.922;2023-04-03T06:39:47;15.31;64.85
75164;HTU21D;63746;45.402;37.922;2023-04-03T06:42:13;15.40;65.02
75164;HTU21D;63746;45.402;37.922;2023-04-03T06:44:47;15.55;65.43
75164;HTU21D;63746;45.402;37.922;2023-04-03T06:47:15;15.72;65.69
75164;HTU21D;63746;45.402;37.922;2023-04-03T06:49:41;15.78;64.54
75164;HTU21D;63746;45.402;37.922;2023-04-03T06:52:08;15.72;64.12
75164;HTU21D;63746;45.402;37.922;2023-04-03T06:54:35;15.63;64.01
75164;HTU21D;63746;45.402;37.922;2023-04-03T06:57:01;15.56;64.10
75164;HTU21D;63746;45.402;37.922;2023-04-03T06:59:27;15.53;64.40
75164;HTU21D;63746;45.402;37.922;2023-04-03T07:01:53;15.54;64.78
75164;HTU21D;63746;45.402;37.922;2023-04-03T07:04:19;15.56;64.59
75164;HTU21D;63746;45.402;37.922;2023-04-03T07:06:46;15.59;64.67
75164;HTU21D;63746;45.402;37.922;2023-04-03T07:09:13;15.67;64.75
75164;HTU21D;63746;45.402;37.922;2023-04-03T07:11:39;15.80;65.13
75164;HTU21D;63746;45.402;37.922;2023-04-03T07:14:05;15.86;64.66
75164;HTU21D;63746;45.402;37.922;2023-04-03T07:16:34;15.92;64.76
75164;HTU21D;63746;45.402;37.922;2023-04-03T07:19:00;15.92;64.45
75164;HTU21D;63746;45.402;37.922;2023-04-03T07:21:27;16.00;64.66
75164;HTU21D;63746;45.402;37.922;2023-04-03T07:23:53;16.10;64.72
75164;HTU21D;63746;45.402;37.922;2023-04-03T07:26:20;16.16;64.34
75164;HTU21D;63746;45.402;37.922;2023-04-03T07:28:49;16.17;63.99
75164;HTU21D;63746;45.402;37.922;2023-04-03T07:31:16;16.16;64.10
75164;HTU21D;63746;45.402;37.922;2023-04-03T07:33:43;16.18;64.16
75164;HTU21D;63746;45.402;37.922;2023-04-03T07:36:10;16.26;64.24
75164;HTU21D;63746;45.402;37.922;2023-04-03T07:38:36;16.31;64.13
75164;HTU21D;63746;45.402;37.922;2023-04-03T07:41:03;16.36;64.24
75164;HTU21D;63746;45.402;37.922;2023-04-03T07:43:30;16.49;64.39
75164;HTU21D;63746;45.402;37.922;2023-04-03T07:45:56;16.66;64.68
75164;HTU21D;63746;45.402;37.922;2023-04-03T07:48:24;16.86;64.04
75164;HTU21D;63746;45.402;37.922;2023-04-03T07:50:51;16.96;63.96
75164;HTU21D;63746;45.402;37.922;2023-04-03T07:53:57;17.00;63.39
75164;HTU21D;63746;45.402;37.922;2023-04-03T07:56:23;16.96;63.20
75164;HTU21D;63746;45.402;37.922;2023-04-03T07:58:50;16.94;63.44
75164;HTU21D;63746;45.402;37.922;2023-04-03T08:01:16;16.96;63.42
75164;HTU21D;63746;45.402;37.922;2023-04-03T08:03:42;16.93;62.66
75164;HTU21D;63746;45.402;37.922;2023-04-03T08:06:09;16.88;62.98
75164;HTU21D;63746;45.402;37.922;2023-04-03T08:08:35;16.82;63.00
75164;HTU21D;63746;45.402;37.922;2023-04-03T08:11:01;16.78;63.32
75164;HTU21D;63746;45.402;37.922;2023-04-03T08:13:29;16.74;62.94
75164;HTU21D;63746;45.402;37.922;2023-04-03T08:15:56;16.69;63.35
75164;HTU21D;63746;45.402;37.922;2023-04-03T08:18:23;16.65;63.49
75164;HTU21D;63746;45.402;37.922;2023-04-03T08:20:51;16.63;63.60
75164;HTU21D;63746;45.402;37.922;2023-04-03T08:23:17;16.62;63.71
75164;HTU21D;63746;45.402;37.922;2023-04-03T08:25:44;16.63;63.73
75164;HTU21D;63746;45.402;37.922;2023-04-03T08:28:11;16.66;63.94
75164;HTU21D;63746;45.402;37.922;2023-04-03T08:30:41;16.73;63.82
75164;HTU21D;63746;45.402;37.922;2023-04-03T08:33:08;16.79;63.87
75164;HTU21D;63746;45.402;37.922;2023-04-03T08:35:39;16.81;63.63
75164;HTU21D;63746;45.402;37.922;2023-04-03T08:38:06;16.88;63.79
75164;HTU21D;63746;45.402;37.922;2023-04-03T08:40:32;16.92;62.98
75164;HTU21D;63746;45.402;37.922;2023-04-03T08:45:57;17.05;63.63
75164;HTU21D;63746;45.402;37.922;2023-04-03T08:48:36;17.23;63.54
75164;HTU21D;63746;45.402;37.922;2023-04-03T08:51:13;17.40;63.47
75164;HTU21D;63746;45.402;37.922;2023-04-03T08:54:03;17.59;63.48
75164;HTU21D;63746;45.402;37.922;2023-04-03T08:56:31;17.76;62.92
75164;HTU21D;63746;45.402;37.922;2023-04-03T08:59:04;17.88;63.08
75164;HTU21D;63746;45.402;37.922;2023-04-03T09:01:36;17.96;62.76
75164;HTU21D;63746;45.402;37.922;2023-04-03T09:04:09;18.03;62.76
75164;HTU21D;63746;45.402;37.922;2023-04-03T09:06:36;18.12;62.50
75164;HTU21D;63746;45.402;37.922;2023-04-03T09:09:31;18.24;60.00
75164;HTU21D;63746;45.402;37.922;2023-04-03T09:17:59;18.46;61.61
75164;HTU21D;63746;45.402;37.922;2023-04-03T09:25:47;18.67;61.50
75164;HTU21D;63746;45.402;37.922;2023-04-03T09:28:14;18.74;61.83
75164;HTU21D;63746;45.402;37.922;2023-04-03T09:30:40;18.78;61.33
75164;HTU21D;63746;45.402;37.922;2023-04-03T09:33:07;18.83;62.15
75164;HTU21D;63746;45.402;37.922;2023-04-03T09:35:36;18.93;61.02
75164;HTU21D;63746;45.402;37.922;2023-04-03T09:40:45;18.97;60.79
75164;HTU21D;63746;45.402;37.922;2023-04-03T09:43:32;19.01;57.38
75164;HTU21D;63746;45.402;37.922;2023-04-03T09:46:28;19.06;58.16
75164;HTU21D;63746;45.402;37.922;2023-04-03T09:48:59;19.12;61.34
75164;HTU21D;63746;45.402;37.922;2023-04-03T09:51:27;19.18;58.92
75164;HTU21D;63746;45.402;37.922;2023-04-03T09:53:54;19.22;61.27
75164;HTU21D;63746;45.402;37.922;2023-04-03T09:56:29;19.23;61.27
75164;HTU21D;63746;45.402;37.922;2023-04-03T10:01:33;19.16;61.11
75164;HTU21D;63746;45.402;37.922;2023-04-03T10:06:36;19.21;61.35
75164;HTU21D;63746;45.402;37.922;2023-04-03T10:09:16;19.23;60.31
75164;HTU21D;63746;45.402;37.922;2023-04-03T10:12:02;19.31;58.44
75164;HTU21D;63746;45.402;37.922;2023-04-03T10:25:09;19.32;60.39
75164;HTU21D;63746;45.402;37.922;2023-04-03T10:27:47;19.24;60.70
75164;HTU21D;63746;45.402;37.922;2023-04-03T10:33:00;19.01;61.40
75164;HTU21D;63746;45.402;37.922;2023-04-03T10:36:12;18.89;55.07
75164;HTU21D;63746;45.402;37.922;2023-04-03T10:41:32;18.62;59.40
75164;HTU21D;63746;45.402;37.922;2023-04-03T10:44:14;18.49;59.19
75164;HTU21D;63746;45.402;37.922;2023-04-03T10:46:50;18.37;56.47
75164;HTU21D;63746;45.402;37.922;2023-04-03T10:52:43;18.23;59.73
75164;HTU21D;63746;45.402;37.922;2023-04-03T10:57:40;18.27;61.57
75164;HTU21D;63746;45.402;37.922;2023-04-03T11:00:30;18.37;59.97
75164;HTU21D;63746;45.402;37.922;2023-04-03T11:03:03;18.40;61.16
75164;HTU21D;63746;45.402;37.922;2023-04-03T11:05:45;18.41;61.25
75164;HTU21D;63746;45.402;37.922;2023-04-03T11:10:51;18.51;62.30
75164;HTU21D;63746;45.402;37.922;2023-04-03T11:15:59;18.68;60.54
75164;HTU21D;63746;45.402;37.922;2023-04-03T11:18:44;18.68;57.76
75164;HTU21D;63746;45.402;37.922;2023-04-03T11:23:39;18.74;61.40
75164;HTU21D;63746;45.402;37.922;2023-04-03T11:26:12;18.68;60.62
75164;HTU21D;63746;45.402;37.922;2023-04-03T11:28:38;18.62;61.36
75164;HTU21D;63746;45.402;37.922;2023-04-03T11:31:20;18.53;60.14
75164;HTU21D;63746;45.402;37.922;2023-04-03T11:36:58;18.42;60.88
75164;HTU21D;63746;45.402;37.922;2023-04-03T11:39:29;18.36;61.66
75164;HTU21D;63746;45.402;37.922;2023-04-03T11:42:13;18.32;59.54
75164;HTU21D;63746;45.402;37.922;2023-04-03T11:44:41;18.29;61.71
75164;HTU21D;63746;45.402;37.922;2023-04-03T11:47:08;18.27;61.73
75164;HTU21D;63746;45.402;37.922;2023-04-03T11:50:00;18.24;61.00
75164;HTU21D;63746;45.402;37.922;2023-04-03T11:52:56;18.23;60.88
75164;HTU21D;63746;45.402;37.922;2023-04-03T12:00:50;18.21;58.53
75164;HTU21D;63746;45.402;37.922;2023-04-03T12:08:30;18.12;61.12
75164;HTU21D;63746;45.402;37.922;2023-04-03T12:16:22;18.20;61.88
75164;HTU21D;63746;45.402;37.922;2023-04-03T12:21:15;18.20;62.08
75164;HTU21D;63746;45.402;37.922;2023-04-03T12:29:23;18.08;60.44
75164;HTU21D;63746;45.402;37.922;2023-04-03T12:40:42;17.82;61.38
75164;HTU21D;63746;45.402;37.922;2023-04-03T12:43:39;17.84;61.32
75164;HTU21D;63746;45.402;37.922;2023-04-03T12:51:40;17.74;61.62
75164;HTU21D;63746;45.402;37.922;2023-04-03T12:54:36;17.66;61.02
75164;HTU21D;63746;45.402;37.922;2023-04-03T12:57:20;17.61;60.58
75164;HTU21D;63746;45.402;37.922;2023-04-03T12:59:47;17.54;61.41
75164;HTU21D;63746;45.402;37.922;2023-04-03T13:02:28;17.49;61.63
75164;HTU21D;63746;45.402;37.922;2023-04-03T13:04:58;17.44;61.38
75164;HTU21D;63746;45.402;37.922;2023-04-03T13:07:34;17.39;61.96
75164;HTU21D;63746;45.402;37.922;2023-04-03T13:12:34;17.43;62.93
75164;HTU21D;63746;45.402;37.922;2023-04-03T13:17:45;17.47;62.53
75164;HTU21D;63746;45.402;37.922;2023-04-03T13:20:19;17.49;62.14
75164;HTU21D;63746;45.402;37.922;2023-04-03T13:25:19;17.49;62.45
75164;HTU21D;63746;45.402;37.922;2023-04-03T13:27:46;17.44;62.50
75164;HTU21D;63746;45.402;37.922;2023-04-03T13:30:31;17.40;62.05
75164;HTU21D;63746;45.402;37.922;2023-04-03T13:33:01;17.37;62.45
75164;HTU21D;63746;45.402;37.922;2023-04-03T13:35:37;17.38;62.85
75164;HTU21D;63746;45.402;37.922;2023-04-03T13:43:25;17.43;62.81
75164;HTU21D;63746;45.402;37.922;2023-04-03T13:46:20;17.44;62.92
75164;HTU21D;63746;45.402;37.922;2023-04-03T13:48:49;17.48;62.97
75164;HTU21D;63746;45.402;37.922;2023-04-03T13:51:21;17.45;62.89
75164;HTU21D;63746;45.402;37.922;2023-04-03T13:56:38;17.33;62.68
75164;HTU21D;63746;45.402;37.922;2023-04-03T13:59:21;17.20;61.82
75164;HTU21D;63746;45.402;37.922;2023-04-03T14:01:52;17.13;62.79
75164;HTU21D;63746;45.402;37.922;2023-04-03T14:04:26;17.04;62.71
75164;HTU21D;63746;45.402;37.922;2023-04-03T14:06:53;16.98;62.95
75164;HTU21D;63746;45.402;37.922;2023-04-03T14:09:21;16.93;63.20
75164;HTU21D;63746;45.402;37.922;2023-04-03T14:11:49;16.88;63.21
75164;HTU21D;63746;45.402;37.922;2023-04-03T14:14:35;16.79;62.39
75164;HTU21D;63746;45.402;37.922;2023-04-03T14:17:10;16.71;63.08
75164;HTU21D;63746;45.402;37.922;2023-04-03T14:19:39;16.61;63.24
75164;HTU21D;63746;45.402;37.922;2023-04-03T14:22:27;16.56;62.28
75164;HTU21D;63746;45.402;37.922;2023-04-03T14:24:54;16.49;63.37
75164;HTU21D;63746;45.402;37.922;2023-04-03T14:27:24;16.46;63.30
75164;HTU21D;63746;45.402;37.922;2023-04-03T14:29:52;16.41;63.35
75164;HTU21D;63746;45.402;37.922;2023-04-03T14:32:19;16.36;63.25
75164;HTU21D;63746;45.402;37.922;2023-04-03T14:34:46;16.32;63.16
75164;HTU21D;63746;45.402;37.922;2023-04-03T14:37:16;16.27;63.44
75164;HTU21D;63746;45.402;37.922;2023-04-03T14:39:43;16.20;63.47
75164;HTU21D;63746;45.402;37.922;2023-04-03T14:42:15;16.14;63.34
75164;HTU21D;63746;45.402;37.922;2023-04-03T14:44:42;16.10;63.55
75164;HTU21D;63746;45.402;37.922;2023-04-03T14:47:18;16.03;63.39
75164;HTU21D;63746;45.402;37.922;2023-04-03T14:49:46;15.98;63.60
75164;HTU21D;63746;45.402;37.922;2023-04-03T14:52:23;15.91;63.57
75164;HTU21D;63746;45.402;37.922;2023-04-03T14:54:50;15.87;63.71
75164;HTU21D;63746;45.402;37.922;2023-04-03T14:57:17;15.80;63.70
75164;HTU21D;63746;45.402;37.922;2023-04-03T14:59:44;15.72;63.76
75164;HTU21D;63746;45.402;37.922;2023-04-03T15:04:55;15.56;63.83
75164;HTU21D;63746;45.402;37.922;2023-04-03T15:07:22;15.52;63.84
75164;HTU21D;63746;45.402;37.922;2023-04-03T15:09:49;15.45;63.85
75164;HTU21D;63746;45.402;37.922;2023-04-03T15:12:16;15.40;63.89
75164;HTU21D;63746;45.402;37.922;2023-04-03T15:14:42;15.32;63.92
75164;HTU21D;63746;45.402;37.922;2023-04-03T15:17:16;15.27;63.96
75164;HTU21D;63746;45.402;37.922;2023-04-03T15:19:43;15.21;64.00
75164;HTU21D;63746;45.402;37.922;2023-04-03T15:22:19;15.14;64.01
75164;HTU21D;63746;45.402;37.922;2023-04-03T15:24:45;15.07;64.05
75164;HTU21D;63746;45.402;37.922;2023-04-03T15:27:13;14.99;64.08
75164;HTU21D;63746;45.402;37.922;2023-04-03T15:29:39;14.92;64.10
75164;HTU21D;63746;45.402;37.922;2023-04-03T15:32:06;14.85;64.14
75164;HTU21D;63746;45.402;37.922;2023-04-03T15:34:32;14.77;64.19
75164;HTU21D;63746;45.402;37.922;2023-04-03T15:36:58;14.70;64.24
75164;HTU21D;63746;45.402;37.922;2023-04-03T15:39:27;14.62;64.31
75164;HTU21D;63746;45.402;37.922;2023-04-03T15:41:53;14.55;64.37
75164;HTU21D;63746;45.402;37.922;2023-04-03T15:44:20;14.48;64.43
75164;HTU21D;63746;45.402;37.922;2023-04-03T15:46:47;14.43;64.53
75164;HTU21D;63746;45.402;37.922;2023-04-03T15:49:14;14.38;64.59
75164;HTU21D;63746;45.402;37.922;2023-04-03T15:51:40;14.33;64.61
75164;HTU21D;63746;45.402;37.922;2023-04-03T15:54:07;14.26;64.61
75164;HTU21D;63746;45.402;37.922;2023-04-03T15:56:33;14.24;64.61
75164;HTU21D;63746;45.402;37.922;2023-04-03T15:58:59;14.20;64.66
75164;HTU21D;63746;45.402;37.922;2023-04-03T16:01:25;14.15;64.65
75164;HTU21D;63746;45.402;37.922;2023-04-03T16:03:51;14.11;64.68
75164;HTU21D;63746;45.402;37.922;2023-04-03T16:06:17;14.05;64.70
75164;HTU21D;63746;45.402;37.922;2023-04-03T16:08:45;14.04;64.71
75164;HTU21D;63746;45.402;37.922;2023-04-03T16:11:12;14.00;64.75
75164;HTU21D;63746;45.402;37.922;2023-04-03T16:13:38;13.98;64.78
75164;HTU21D;63746;45.402;37.922;2023-04-03T16:16:04;13.96;64.76
75164;HTU21D;63746;45.402;37.922;2023-04-03T16:18:31;13.93;64.79
75164;HTU21D;63746;45.402;37.922;2023-04-03T16:20:57;13.91;64.80
75164;HTU21D;63746;45.402;37.922;2023-04-03T16:23:23;13.89;64.82
75164;HTU21D;63746;45.402;37.922;2023-04-03T16:25:49;13.86;64.79
75164;HTU21D;63746;45.402;37.922;2023-04-03T16:28:16;13.84;64.80
75164;HTU21D;63746;45.402;37.922;2023-04-03T16:30:44;13.81;64.79
75164;HTU21D;63746;45.402;37.922;2023-04-03T16:33:12;13.78;64.83
75164;HTU21D;63746;45.402;37.922;2023-04-03T16:35:39;13.76;64.84
75164;HTU21D;63746;45.402;37.922;2023-04-03T16:38:07;13.74;64.85
75164;HTU21D;63746;45.402;37.922;2023-04-03T16:40:34;13.71;64.86
75164;HTU21D;63746;45.402;37.922;2023-04-03T16:43:01;13.69;64.84
75164;HTU21D;63746;45.402;37.922;2023-04-03T16:45:27;13.65;64.86
75164;HTU21D;63746;45.402;37.922;2023-04-03T16:47:53;13.63;64.88
75164;HTU21D;63746;45.402;37.922;2023-04-03T16:50:19;13.61;64.86
75164;HTU21D;63746;45.402;37.922;2023-04-03T16:52:46;13.58;64.93
75164;HTU21D;63746;45.402;37.922;2023-04-03T16:55:12;13.56;64.92
75164;HTU21D;63746;45.402;37.922;2023-04-03T16:57:38;13.55;64.92
75164;HTU21D;63746;45.402;37.922;2023-04-03T17:00:04;13.54;64.91
75164;HTU21D;63746;45.402;37.922;2023-04-03T17:02:31;13.51;64.92
75164;HTU21D;63746;45.402;37.922;2023-04-03T17:04:57;13.49;64.90
75164;HTU21D;63746;45.402;37.922;2023-04-03T17:07:24;13.45;64.96
75164;HTU21D;63746;45.402;37.922;2023-04-03T17:09:51;13.41;65.02
75164;HTU21D;63746;45.402;37.922;2023-04-03T17:12:19;13.37;65.12
75164;HTU21D;63746;45.402;37.922;2023-04-03T17:14:46;13.34;65.11